createdAt,value
2018-11-05T00:01:03.904Z,59.10
2018-11-05T00:03:32.637Z,59.10
2018-11-05T00:06:01.377Z,59.20
2018-11-05T00:08:30.116Z,59.20
2018-11-05T00:11:04.938Z,59.20
2018-11-05T00:13:33.711Z,59.20
2018-11-05T00:16:02.453Z,59.20
2018-11-05T00:18:31.192Z,59.20
2018-11-05T00:20:59.932Z,58.70
2018-11-05T00:23:28.670Z,59.10
2018-11-05T00:25:57.404Z,59.10
2018-11-05T00:28:26.144Z,59.70
2018-11-05T00:30:54.909Z,59.10
2018-11-05T00:33:23.636Z,59.00
2018-11-05T00:35:52.392Z,58.90
2018-11-05T00:38:21.124Z,58.90
2018-11-05T00:40:49.881Z,58.80
2018-11-05T00:43:18.612Z,58.90
2018-11-05T00:45:47.466Z,58.90
2018-11-05T00:48:16.096Z,59.00
2018-11-05T00:50:44.834Z,59.00
2018-11-05T00:53:13.577Z,59.00
2018-11-05T00:55:42.315Z,59.00
2018-11-05T00:58:11.044Z,59.00
2018-11-05T01:00:39.787Z,58.90
2018-11-05T01:03:08.562Z,58.90
2018-11-05T01:05:37.296Z,58.90
2018-11-05T01:08:06.145Z,58.90
2018-11-05T01:10:34.884Z,58.90
2018-11-05T01:13:03.616Z,58.90
2018-11-05T01:15:32.359Z,58.80
2018-11-05T01:18:01.094Z,58.90
2018-11-05T01:20:29.833Z,58.80
2018-11-05T01:22:58.575Z,58.80
2018-11-05T01:25:27.308Z,58.80
2018-11-05T01:27:56.040Z,58.70
2018-11-05T01:30:24.884Z,58.70
2018-11-05T01:32:53.617Z,58.70
2018-11-05T01:35:22.356Z,58.70
2018-11-05T01:37:51.108Z,58.60
2018-11-05T01:40:19.844Z,58.60
2018-11-05T01:42:48.584Z,58.70
2018-11-05T01:45:17.323Z,58.70
2018-11-05T01:47:46.060Z,58.70
2018-11-05T01:50:15.900Z,59.30
2018-11-05T01:52:45.113Z,58.60
2018-11-05T01:55:13.848Z,58.60
2018-11-05T01:57:42.788Z,58.60
2018-11-05T02:00:14.236Z,58.60
2018-11-05T02:02:43.539Z,58.50
2018-11-05T02:05:12.269Z,58.60
2018-11-05T02:07:42.140Z,58.60
2018-11-05T02:10:14.006Z,58.50
2018-11-05T02:12:42.733Z,58.50
2018-11-05T02:15:11.928Z,58.50
2018-11-05T02:17:42.004Z,58.50
2018-11-05T02:20:11.117Z,58.40
2018-11-05T02:22:39.992Z,58.40
2018-11-05T02:25:09.728Z,58.40
2018-11-05T02:27:38.491Z,58.40
2018-11-05T02:30:10.813Z,58.50
2018-11-05T02:32:39.566Z,58.50
2018-11-05T02:35:09.721Z,58.50
2018-11-05T02:37:38.665Z,58.40
2018-11-05T02:40:09.965Z,58.40
2018-11-05T02:42:39.013Z,58.40
2018-11-05T02:45:08.564Z,58.40
2018-11-05T02:47:37.608Z,58.40
2018-11-05T02:50:07.375Z,58.40
2018-11-05T02:52:36.316Z,58.40
2018-11-05T02:55:05.187Z,58.40
2018-11-05T02:57:33.926Z,58.40
2018-11-05T03:00:02.684Z,58.30
2018-11-05T03:02:31.395Z,58.30
2018-11-05T03:05:00.129Z,58.30
2018-11-05T03:07:28.868Z,58.30
2018-11-05T03:09:57.607Z,58.30
2018-11-05T03:12:26.511Z,58.20
2018-11-05T03:14:55.245Z,58.20
2018-11-05T03:17:23.984Z,58.20
2018-11-05T03:19:52.716Z,58.20
2018-11-05T03:22:21.452Z,58.20
2018-11-05T03:24:50.196Z,58.20
2018-11-05T03:27:18.936Z,58.20
2018-11-05T03:29:47.673Z,58.20
2018-11-05T03:32:16.412Z,58.30
2018-11-05T03:34:45.148Z,58.30
2018-11-05T03:37:13.883Z,58.30
2018-11-05T03:39:42.644Z,58.20
2018-11-05T03:42:11.385Z,58.20
2018-11-05T03:44:40.116Z,58.20
2018-11-05T03:47:08.862Z,58.20
2018-11-05T03:49:37.593Z,58.20
2018-11-05T03:52:06.333Z,58.20
2018-11-05T03:54:35.060Z,58.20
2018-11-05T03:57:03.840Z,58.20
2018-11-05T03:59:32.940Z,58.20
2018-11-05T04:02:01.842Z,58.20
2018-11-05T04:04:30.577Z,58.20
2018-11-05T04:06:59.283Z,58.10
2018-11-05T04:09:27.996Z,58.30
2018-11-05T04:11:56.708Z,58.10
2018-11-05T04:14:25.439Z,58.10
2018-11-05T04:16:54.140Z,58.00
2018-11-05T04:19:22.868Z,58.00
2018-11-05T04:21:51.591Z,58.10
2018-11-05T04:24:20.316Z,58.10
2018-11-05T04:26:49.031Z,58.20
2018-11-05T04:29:17.743Z,58.10
2018-11-05T04:31:46.460Z,58.10
2018-11-05T04:34:15.179Z,58.10
2018-11-05T04:36:43.892Z,58.10
2018-11-05T04:39:15.149Z,58.10
2018-11-05T04:41:43.928Z,58.10
2018-11-05T04:44:12.709Z,58.10
2018-11-05T04:46:41.369Z,58.10
2018-11-05T04:49:10.304Z,58.10
2018-11-05T04:51:39.020Z,58.10
2018-11-05T04:54:07.751Z,58.10
2018-11-05T04:56:36.608Z,58.10
2018-11-05T04:59:06.224Z,58.00
2018-11-05T05:01:35.192Z,58.00
2018-11-05T05:04:03.940Z,57.90
2018-11-05T05:06:32.673Z,57.80
2018-11-05T05:09:01.392Z,57.80
2018-11-05T05:11:30.106Z,57.80
2018-11-05T05:13:58.828Z,57.80
2018-11-05T05:16:27.547Z,57.80
2018-11-05T05:18:56.269Z,57.90
2018-11-05T05:21:24.980Z,57.80
2018-11-05T05:23:53.709Z,57.80
2018-11-05T05:26:22.421Z,58.00
2018-11-05T05:28:51.140Z,57.70
2018-11-05T05:31:19.844Z,57.50
2018-11-05T05:33:48.566Z,57.40
2018-11-05T05:36:17.292Z,57.30
2018-11-05T05:38:46.008Z,57.10
2018-11-05T05:41:14.802Z,57.00
2018-11-05T05:43:43.494Z,56.90
2018-11-05T05:46:12.204Z,56.70
2018-11-05T05:48:40.923Z,56.60
2018-11-05T05:51:09.636Z,56.50
2018-11-05T05:53:38.372Z,56.30
2018-11-05T05:56:07.499Z,56.30
2018-11-05T05:58:36.209Z,56.40
2018-11-05T06:01:05.176Z,56.70
2018-11-05T06:03:33.976Z,56.80
2018-11-05T06:06:02.966Z,57.00
2018-11-05T06:08:31.604Z,57.20
2018-11-05T06:11:00.331Z,57.40
2018-11-05T06:13:29.088Z,57.60
2018-11-05T06:15:57.868Z,57.60
2018-11-05T06:18:26.532Z,57.50
2018-11-05T06:20:55.253Z,58.10
2018-11-05T06:23:24.024Z,57.60
2018-11-05T06:25:52.691Z,57.70
2018-11-05T06:28:21.422Z,57.90
2018-11-05T06:30:50.136Z,57.90
2018-11-05T06:33:18.881Z,58.10
2018-11-05T06:35:47.737Z,58.00
2018-11-05T06:38:16.572Z,58.20
2018-11-05T06:40:45.293Z,58.20
2018-11-05T06:43:14.008Z,58.30
2018-11-05T06:45:42.775Z,58.30
2018-11-05T06:48:11.485Z,58.30
2018-11-05T06:50:40.204Z,57.70
2018-11-05T06:53:08.916Z,57.80
2018-11-05T06:55:37.649Z,57.60
2018-11-05T06:58:06.375Z,57.40
2018-11-05T07:00:35.104Z,57.30
2018-11-05T07:03:03.857Z,57.30
2018-11-05T07:05:32.576Z,57.40
2018-11-05T07:08:01.296Z,57.50
2018-11-05T07:10:30.020Z,57.60
2018-11-05T07:12:58.727Z,57.80
2018-11-05T07:15:27.441Z,57.90
2018-11-05T07:17:56.158Z,58.10
2018-11-05T07:20:24.876Z,58.10
2018-11-05T07:22:53.604Z,58.20
2018-11-05T07:25:22.457Z,58.40
2018-11-05T07:27:51.274Z,58.40
2018-11-05T07:30:21.155Z,58.50
2018-11-05T07:32:50.965Z,58.60
2018-11-05T07:35:19.696Z,58.60
2018-11-05T07:37:48.411Z,58.70
2018-11-05T07:40:18.064Z,58.80
2018-11-05T07:42:46.804Z,59.40
2018-11-05T07:45:19.365Z,59.40
2018-11-05T07:47:48.413Z,59.50
2018-11-05T07:50:18.887Z,59.60
2018-11-05T07:52:47.624Z,59.60
2018-11-05T07:55:17.369Z,59.60
2018-11-05T07:57:46.876Z,59.50
2018-11-05T08:00:21.789Z,59.50
2018-11-05T08:02:52.305Z,59.50
2018-11-05T08:05:21.715Z,59.70
2018-11-05T08:07:50.712Z,59.60
2018-11-05T08:10:19.415Z,59.60
2018-11-05T08:12:48.160Z,59.50
2018-11-05T08:15:19.676Z,59.40
2018-11-05T08:17:49.404Z,59.10
2018-11-05T08:20:18.123Z,59.00
2018-11-05T08:22:46.872Z,58.90
2018-11-05T08:25:16.321Z,58.80
2018-11-05T08:27:45.044Z,58.70
2018-11-05T08:30:16.146Z,58.70
2018-11-05T08:32:44.868Z,58.70
2018-11-05T08:35:14.033Z,58.60
2018-11-05T08:37:43.680Z,58.60
2018-11-05T08:40:21.553Z,58.50
2018-11-05T08:42:51.161Z,58.30
2018-11-05T08:45:22.328Z,58.20
2018-11-05T08:47:51.056Z,58.20
2018-11-05T08:50:21.086Z,58.00
2018-11-05T08:52:49.668Z,57.90
2018-11-05T08:55:19.642Z,57.60
2018-11-05T08:57:48.449Z,57.50
2018-11-05T09:00:23.260Z,57.40
2018-11-05T09:02:52.380Z,57.40
2018-11-05T09:05:21.449Z,57.40
2018-11-05T09:07:51.016Z,57.30
2018-11-05T09:10:19.966Z,57.30
2018-11-05T09:12:48.461Z,57.30
2018-11-05T09:15:18.416Z,57.30
2018-11-05T09:17:47.707Z,57.30
2018-11-05T09:20:17.425Z,57.30
2018-11-05T09:22:46.480Z,57.30
2018-11-05T09:25:15.828Z,57.40
2018-11-05T09:27:44.555Z,57.40
2018-11-05T09:30:15.463Z,57.40
2018-11-05T09:32:44.949Z,57.40
2018-11-05T09:35:13.701Z,57.40
2018-11-05T09:37:42.422Z,57.50
2018-11-05T09:40:13.849Z,57.60
2018-11-05T09:42:43.097Z,57.60
2018-11-05T09:45:14.450Z,57.70
2018-11-05T09:47:43.938Z,57.80
2018-11-05T09:50:12.916Z,57.90
2018-11-05T09:52:41.637Z,58.50
2018-11-05T09:55:11.520Z,58.00
2018-11-05T09:57:40.520Z,58.10
2018-11-05T10:00:15.348Z,58.10
2018-11-05T10:02:49.665Z,58.10
2018-11-05T10:05:18.428Z,58.10
2018-11-05T10:07:47.247Z,58.10
2018-11-05T10:10:16.598Z,58.10
2018-11-05T10:12:45.444Z,58.10
2018-11-05T10:15:15.042Z,58.10
2018-11-05T10:17:43.826Z,58.10
2018-11-05T10:20:15.004Z,58.00
2018-11-05T10:22:44.185Z,58.00
2018-11-05T10:25:13.469Z,58.00
2018-11-05T10:27:42.114Z,58.50
2018-11-05T10:30:14.329Z,58.10
2018-11-05T10:32:43.546Z,58.10
2018-11-05T10:35:13.128Z,58.10
2018-11-05T10:37:41.861Z,58.30
2018-11-05T10:40:13.698Z,59.10
2018-11-05T10:42:43.218Z,58.70
2018-11-05T10:45:13.310Z,58.90
2018-11-05T10:47:42.068Z,59.00
2018-11-05T10:50:12.133Z,59.00
2018-11-05T10:52:40.855Z,59.10
2018-11-05T10:55:09.997Z,59.00
2018-11-05T10:57:39.265Z,59.00
2018-11-05T11:00:20.768Z,59.00
2018-11-05T11:02:54.812Z,59.60
2018-11-05T11:05:24.127Z,59.10
2018-11-05T11:07:54.013Z,59.10
2018-11-05T11:10:23.116Z,59.10
2018-11-05T11:12:51.881Z,59.00
2018-11-05T11:15:21.000Z,59.00
2018-11-05T11:17:49.648Z,59.00
2018-11-05T11:20:18.369Z,59.00
2018-11-05T11:22:47.092Z,59.00
2018-11-05T11:25:15.813Z,59.10
2018-11-05T11:27:44.558Z,59.60
2018-11-05T11:30:14.246Z,59.00
2018-11-05T11:32:43.537Z,59.00
2018-11-05T11:35:12.636Z,59.00
2018-11-05T11:37:41.349Z,59.00
2018-11-05T11:40:13.292Z,58.90
2018-11-05T11:42:42.887Z,58.90
2018-11-05T11:45:12.261Z,58.80
2018-11-05T11:47:40.977Z,58.80
2018-11-05T11:50:11.353Z,58.90
2018-11-05T11:52:40.158Z,58.90
2018-11-05T11:55:11.033Z,58.80
2018-11-05T11:57:40.125Z,58.70
2018-11-05T12:00:12.672Z,58.70
2018-11-05T12:02:41.421Z,58.80
2018-11-05T12:05:10.318Z,58.90
2018-11-05T12:07:39.007Z,59.00
2018-11-05T12:10:13.489Z,58.90
2018-11-05T12:12:42.332Z,59.50
2018-11-05T12:15:11.884Z,58.90
2018-11-05T12:17:41.192Z,58.90
2018-11-05T12:20:12.277Z,58.90
2018-11-05T12:22:41.773Z,58.80
2018-11-05T12:25:10.729Z,58.80
2018-11-05T12:27:39.461Z,59.30
2018-11-05T12:30:14.849Z,58.60
2018-11-05T12:32:44.289Z,58.60
2018-11-05T12:35:13.368Z,58.70
2018-11-05T12:37:43.495Z,58.70
2018-11-05T12:40:13.966Z,58.70
2018-11-05T12:42:43.991Z,58.80
2018-11-05T12:45:12.704Z,58.90
2018-11-05T12:47:41.424Z,59.00
2018-11-05T12:50:13.977Z,59.30
2018-11-05T12:52:43.512Z,59.50
2018-11-05T12:55:12.231Z,59.70
2018-11-05T12:57:41.176Z,59.80
2018-11-05T13:00:11.904Z,59.80
2018-11-05T13:02:40.634Z,59.90
2018-11-05T13:05:10.252Z,60.00
2018-11-05T13:07:38.999Z,60.10
2018-11-05T13:10:09.676Z,60.10
2018-11-05T13:12:38.605Z,60.10
2018-11-05T13:15:07.634Z,60.20
2018-11-05T13:17:36.900Z,60.30
2018-11-05T13:20:07.293Z,60.30
2018-11-05T13:22:36.042Z,60.30
2018-11-05T13:25:04.755Z,60.40
2018-11-05T13:27:33.474Z,60.50
2018-11-05T13:30:02.260Z,60.50
2018-11-05T13:32:31.038Z,60.60
2018-11-05T13:34:59.760Z,60.60
2018-11-05T13:37:28.698Z,60.70
2018-11-05T13:39:57.221Z,60.70
2018-11-05T13:42:25.932Z,60.60
2018-11-05T13:44:54.753Z,60.70
2018-11-05T13:47:24.253Z,61.30
2018-11-05T13:49:52.316Z,60.70
2018-11-05T13:52:21.136Z,60.70
2018-11-05T13:54:49.822Z,60.70
2018-11-05T13:57:19.141Z,60.60
2018-11-05T13:59:47.859Z,60.50
2018-11-05T14:02:16.619Z,60.60
2018-11-05T14:04:45.312Z,61.10
2018-11-05T14:07:14.032Z,60.70
2018-11-05T14:09:42.743Z,60.70
2018-11-05T14:12:11.460Z,60.80
2018-11-05T14:14:40.308Z,60.90
2018-11-05T14:17:08.972Z,61.00
2018-11-05T14:19:37.692Z,61.10
2018-11-05T14:22:06.412Z,61.30
2018-11-05T14:24:35.124Z,61.20
2018-11-05T14:27:03.960Z,61.30
2018-11-05T14:29:33.098Z,61.30
2018-11-05T14:32:01.413Z,61.40
2018-11-05T14:34:30.160Z,61.50
2018-11-05T14:36:58.989Z,61.50
2018-11-05T14:39:27.560Z,61.50
2018-11-05T14:41:56.276Z,61.50
2018-11-05T14:44:25.017Z,61.60
2018-11-05T14:46:53.753Z,61.70
2018-11-05T14:49:22.472Z,61.80
2018-11-05T14:51:51.193Z,61.80
2018-11-05T14:54:19.916Z,61.80
2018-11-05T14:56:48.635Z,61.80
2018-11-05T14:59:17.356Z,61.80
2018-11-05T15:01:46.232Z,61.90
2018-11-05T15:04:15.602Z,62.10
2018-11-05T15:06:44.247Z,62.60
2018-11-05T15:09:13.400Z,63.20
2018-11-05T15:11:42.132Z,62.80
2018-11-05T15:14:10.861Z,62.90
2018-11-05T15:16:39.583Z,62.90
2018-11-05T15:19:09.055Z,63.00
2018-11-05T15:21:37.426Z,62.90
2018-11-05T15:24:06.617Z,62.90
2018-11-05T15:26:35.339Z,63.00
2018-11-05T15:29:05.069Z,63.20
2018-11-05T15:31:33.788Z,63.30
2018-11-05T15:34:02.512Z,63.40
2018-11-05T15:36:31.320Z,63.50
2018-11-05T15:39:00.006Z,63.60
2018-11-05T15:41:28.719Z,63.70
2018-11-05T15:43:57.449Z,64.50
2018-11-05T15:46:26.334Z,63.80
2018-11-05T15:48:55.022Z,63.80
2018-11-05T15:51:24.011Z,63.90
2018-11-05T15:53:52.546Z,63.90
2018-11-05T15:56:21.184Z,64.00
2018-11-05T15:58:49.900Z,63.50
2018-11-05T16:01:18.625Z,64.00
2018-11-05T16:03:47.343Z,64.10
2018-11-05T16:06:16.073Z,64.10
2018-11-05T16:08:45.293Z,64.10
2018-11-05T16:11:38.132Z,64.10
2018-11-05T16:14:07.284Z,64.20
2018-11-05T16:16:36.116Z,64.10
2018-11-05T16:19:05.052Z,64.20
2018-11-05T16:21:35.736Z,64.30
2018-11-05T16:24:04.501Z,64.20
2018-11-05T16:26:33.277Z,64.20
2018-11-05T16:29:02.001Z,64.10
2018-11-05T16:31:30.736Z,64.20
2018-11-05T16:33:59.452Z,64.10
2018-11-05T16:36:28.256Z,63.90
2018-11-05T16:38:56.964Z,63.80
2018-11-05T16:41:25.849Z,63.80
2018-11-05T16:43:54.565Z,64.40
2018-11-05T16:46:23.288Z,63.50
2018-11-05T16:48:52.003Z,63.60
2018-11-05T16:51:20.741Z,63.60
2018-11-05T16:53:49.496Z,63.60
2018-11-05T16:56:18.177Z,63.60
2018-11-05T16:58:46.916Z,63.60
2018-11-05T17:01:15.943Z,63.60
2018-11-05T17:03:44.357Z,63.60
2018-11-05T17:06:13.066Z,63.60
2018-11-05T17:08:41.912Z,63.60
2018-11-05T17:11:10.633Z,63.60
2018-11-05T17:13:39.490Z,62.80
2018-11-05T17:16:08.072Z,63.60
2018-11-05T17:18:36.876Z,63.60
2018-11-05T17:21:06.000Z,63.60
2018-11-05T17:23:34.978Z,63.60
2018-11-05T17:26:03.701Z,63.60
2018-11-05T17:28:32.425Z,63.60
2018-11-05T17:31:01.143Z,63.60
2018-11-05T17:33:29.891Z,63.50
2018-11-05T17:35:58.578Z,63.40
2018-11-05T17:38:27.304Z,63.30
2018-11-05T17:40:56.188Z,63.40
2018-11-05T17:43:24.913Z,63.30
2018-11-05T17:45:53.637Z,63.30
2018-11-05T17:48:22.356Z,63.30
2018-11-05T17:50:51.200Z,63.00
2018-11-05T17:53:19.888Z,63.10
2018-11-05T17:55:48.604Z,63.30
2018-11-05T17:58:17.327Z,63.30
2018-11-05T18:00:46.052Z,63.60
2018-11-05T18:03:14.780Z,63.80
2018-11-05T18:05:43.500Z,64.00
2018-11-05T18:08:12.216Z,64.10
2018-11-05T18:10:40.937Z,64.10
2018-11-05T18:13:09.674Z,64.20
2018-11-05T18:15:38.511Z,64.20
2018-11-05T18:18:07.191Z,64.30
2018-11-05T18:20:35.916Z,64.40
2018-11-05T18:23:05.132Z,64.40
2018-11-05T18:25:33.859Z,64.40
2018-11-05T18:28:03.514Z,64.40
2018-11-05T18:30:32.220Z,64.20
2018-11-05T18:33:04.057Z,64.20
2018-11-05T18:35:32.771Z,64.20
2018-11-05T18:38:01.540Z,64.40
2018-11-05T18:40:30.212Z,64.30
2018-11-05T18:42:59.100Z,64.40
2018-11-05T18:45:27.742Z,64.40
2018-11-05T18:47:56.432Z,64.50
2018-11-05T18:50:25.279Z,64.40
2018-11-05T18:52:53.936Z,64.40
2018-11-05T18:55:22.660Z,64.50
2018-11-05T18:57:51.412Z,64.60
2018-11-05T19:00:24.680Z,64.60
2018-11-05T19:02:54.398Z,64.60
2018-11-05T19:05:24.000Z,64.50
2018-11-05T19:07:52.729Z,64.60
2018-11-05T19:10:21.663Z,65.30
2018-11-05T19:12:51.182Z,64.50
2018-11-05T19:15:20.044Z,64.50
2018-11-05T19:17:49.472Z,64.50
2018-11-05T19:20:18.566Z,64.50
2018-11-05T19:22:47.457Z,64.40
2018-11-05T19:25:16.766Z,64.50
2018-11-05T19:27:45.527Z,64.50
2018-11-05T19:30:21.538Z,64.60
2018-11-05T19:32:50.234Z,64.60
2018-11-05T19:35:18.976Z,64.60
2018-11-05T19:37:47.700Z,64.60
2018-11-05T19:40:17.268Z,64.60
2018-11-05T19:42:46.793Z,64.60
2018-11-05T19:45:16.988Z,64.70
2018-11-05T19:47:45.709Z,64.70
2018-11-05T19:50:20.020Z,64.70
2018-11-05T19:52:49.745Z,64.60
2018-11-05T19:55:19.116Z,64.60
2018-11-05T19:57:48.441Z,64.50
2018-11-05T20:00:19.825Z,64.40
2018-11-05T20:02:49.247Z,64.50
2018-11-05T20:05:18.172Z,64.50
2018-11-05T20:07:47.356Z,65.40
2018-11-05T20:10:16.110Z,64.50
2018-11-05T20:12:45.553Z,64.50
2018-11-05T20:15:14.454Z,64.60
2018-11-05T20:17:43.948Z,64.50
2018-11-05T20:20:14.073Z,64.50
2018-11-05T20:22:43.016Z,64.50
2018-11-05T20:25:11.960Z,64.40
2018-11-05T20:27:41.251Z,64.40
2018-11-05T20:30:18.245Z,64.70
2018-11-05T20:32:48.457Z,64.70
2018-11-05T20:35:16.693Z,64.60
2018-11-05T20:37:45.409Z,64.40
2018-11-05T20:40:15.490Z,64.30
2018-11-05T20:42:45.352Z,64.30
2018-11-05T20:45:14.664Z,64.20
2018-11-05T20:47:43.652Z,64.20
2018-11-05T20:50:13.266Z,64.20
2018-11-05T20:52:41.971Z,64.10
2018-11-05T20:55:12.083Z,64.10
2018-11-05T20:57:41.259Z,64.10
2018-11-05T21:00:11.788Z,64.10
2018-11-05T21:02:41.096Z,64.10
2018-11-05T21:05:09.819Z,64.00
2018-11-05T21:07:39.184Z,64.00
2018-11-05T21:10:09.328Z,63.90
2018-11-05T21:12:38.716Z,63.80
2018-11-05T21:15:12.580Z,63.80
2018-11-05T21:17:41.830Z,63.60
2018-11-05T21:20:10.700Z,63.20
2018-11-05T21:22:39.526Z,63.10
2018-11-05T21:25:08.381Z,63.10
2018-11-05T21:27:37.795Z,63.20
2018-11-05T21:30:08.579Z,63.10
2018-11-05T21:32:37.687Z,63.10
2018-11-05T21:35:07.791Z,63.30
2018-11-05T21:37:36.785Z,63.60
2018-11-05T21:40:06.522Z,63.70
2018-11-05T21:42:35.652Z,63.90
2018-11-05T21:45:05.515Z,64.00
2018-11-05T21:47:34.294Z,64.00
2018-11-05T21:50:03.876Z,64.00
2018-11-05T21:52:32.549Z,64.00
2018-11-05T21:55:01.268Z,64.70
2018-11-05T21:57:29.983Z,64.10
2018-11-05T21:59:58.712Z,63.90
2018-11-05T22:02:27.415Z,63.90
2018-11-05T22:04:56.375Z,63.90
2018-11-05T22:07:25.092Z,64.00
2018-11-05T22:09:53.812Z,64.00
2018-11-05T22:12:22.597Z,64.00
2018-11-05T22:14:51.312Z,64.00
2018-11-05T22:17:20.023Z,63.90
2018-11-05T22:19:48.744Z,63.90
2018-11-05T22:22:17.475Z,63.90
2018-11-05T22:24:46.181Z,63.90
2018-11-05T22:27:14.906Z,63.90
2018-11-05T22:29:43.612Z,63.80
2018-11-05T22:32:12.328Z,63.80
2018-11-05T22:34:41.040Z,63.80
2018-11-05T22:37:09.805Z,63.70
2018-11-05T22:39:38.472Z,64.30
2018-11-05T22:42:07.188Z,63.70
2018-11-05T22:44:35.952Z,63.60
2018-11-05T22:47:04.845Z,63.50
2018-11-05T22:49:33.552Z,63.50
2018-11-05T22:52:02.276Z,63.60
2018-11-05T22:54:30.984Z,63.50
2018-11-05T22:56:59.714Z,63.50
2018-11-05T22:59:28.424Z,63.50
2018-11-05T23:01:57.144Z,63.50
2018-11-05T23:04:25.860Z,63.40
2018-11-05T23:06:54.575Z,63.40
2018-11-05T23:09:23.297Z,63.30
2018-11-05T23:11:52.012Z,63.30
2018-11-05T23:14:20.724Z,63.30
2018-11-05T23:16:49.456Z,63.30
2018-11-05T23:19:18.160Z,63.30
2018-11-05T23:21:46.871Z,63.30
2018-11-05T23:24:15.591Z,63.20
2018-11-05T23:26:44.303Z,63.20
2018-11-05T23:29:13.012Z,63.20
2018-11-05T23:31:41.760Z,63.10
2018-11-05T23:34:10.469Z,63.00
2018-11-05T23:36:39.183Z,63.00
2018-11-05T23:39:09.012Z,62.90
2018-11-05T23:41:37.774Z,63.00
2018-11-05T23:44:06.532Z,62.90
2018-11-05T23:46:35.241Z,62.90
2018-11-05T23:49:03.973Z,62.90
2018-11-05T23:51:32.744Z,62.90
2018-11-05T23:54:01.397Z,62.90
2018-11-05T23:56:30.108Z,62.90
2018-11-05T23:58:58.868Z,63.00
